Yellow Jacket, CO (81335)

2:42 AM MDT on September 29, 2016 (GMT -0600)
East Lewis | | Change Station

Elev 6909 ft 37.52 °N, 108.63 °W | Updated 2 minutes ago

Mostly Cloudy
Mostly Cloudy
56.3 °F
Feels Like 56.3 °F
N
1.0
Wind Variable Wind from ENE
Gusts 2.0 mph

Today
High -- | Low -- °F
--% Chance of Precip.
Yesterday
High -- | Low -- °F
Precip. -- in
Pressure 30.16 in
Visibility 10.0 miles
Clouds Mostly Cloudy 11000 ft
Dew Point 45 °F
Humidity 66%
Rainfall 0.00 in
Snow Depth Not available.
7:09 AM 7:00 PM
Waning Crescent, 3% visible
METAR KCEZ 290753Z AUTO 06006KT 10SM BKN110 14/09 A3037 RMK AO2 SLP211 T01390089
Pressure 30.16 in
Visibility 10.0 miles
Clouds Mostly Cloudy 11000 ft
Dew Point 45 °F
Humidity 66%
Rainfall 0.00 in
Snow Depth Not available.
7:09 AM 7:00 PM
Waning Crescent, 3% visible
METAR KCEZ 290753Z AUTO 06006KT 10SM BKN110 14/09 A3037 RMK AO2 SLP211 T01390089

10-Day Weather Forecast

Almanac

Astronomy

Sep. 29, 2016 Rise Set
Actual Time
Civil Twilight
Nautical Twilight
Astronomical Twilight
Moon
Length of Visible Light
Length of Day
Tomorrow will be .
, % of the Moon is Illuminated

Today's Extremes

State Highs State Lows

Community

WunderPhotos

Upload Photos

1,942,446 photos uploaded!

WunderBlog® & News

Nearby

Air Quality

  Air Quality AQ Index Pollutant
Not available.

Snow Depth

Station Depth Elevation

Earthquake Activity

City Distance Mag. Time & Date
Minimum magnitude displayed is 2.5.

Coastal Water Temperatures

Place Temperature

Stations

Nearby Weather Stations

Station Location Temp. Windchill Dew Point Humidity Wind Precip. Elev Updated Type
                   

Watches & Warnings

There are currently no watches in effect.